Time;durP1;ratioP1;P1;durP2;ratioP2;P2;SDS_P1;SDS_P2;PMS_P1;PMS_P2;Temp;Humidity;BMP_temperature;BMP_pressure;BME280_temperature;BME280_humidity;BME280_pressure;Samples;Min_cycle;Max_cycle;Signal;HPM_P1;HPM_P2
2023/04/17 00:01:26;;;;;;;;;6.67;5.67;;;;;10.71;50.52;101989.50;5059164;28;45412;-76
2023/04/17 00:03:52;;;;;;;;;6.00;6.00;;;;;10.70;50.79;102011.75;5077359;27;45381;-73
2023/04/17 00:06:18;;;;;;;;;5.67;5.67;;;;;10.80;50.90;102053.50;5077436;27;45478;-74
2023/04/17 00:08:43;;;;;;;;;7.00;7.00;;;;;10.57;51.24;102009.13;5054910;28;47081;-76
2023/04/17 00:11:09;;;;;;;;;5.00;4.33;;;;;10.77;51.38;102045.75;5051438;28;46074;-73
2023/04/17 00:13:35;;;;;;;;;5.67;4.00;;;;;10.62;51.08;102007.84;5077309;28;45506;-74
2023/04/17 00:16:00;;;;;;;;;7.00;7.00;;;;;10.48;51.35;101986.75;5077355;28;45224;-75
2023/04/17 00:18:25;;;;;;;;;5.33;5.00;;;;;10.89;51.36;102046.66;5076541;28;45604;-74
2023/04/17 00:20:51;;;;;;;;;7.00;5.67;;;;;10.80;50.98;102010.09;5076778;28;60285;-75
2023/04/17 00:23:16;;;;;;;;;4.33;4.33;;;;;10.57;50.64;101966.59;5077224;27;45248;-75
2023/04/17 00:25:41;;;;;;;;;4.33;3.33;;;;;10.89;50.72;102001.44;5077933;28;45231;-75
2023/04/17 00:28:07;;;;;;;;;5.00;3.33;;;;;10.87;51.11;101995.38;5076677;27;65767;-75
2023/04/17 00:30:32;;;;;;;;;6.00;6.00;;;;;10.66;51.13;101972.09;5058694;28;45610;-74
2023/04/17 00:32:57;;;;;;;;;8.33;7.33;;;;;10.94;51.48;102031.19;5058800;28;45276;-75
2023/04/17 00:35:23;;;;;;;;;5.33;5.00;;;;;10.45;51.80;101968.38;5077347;27;45363;-75
2023/04/17 00:37:48;;;;;;;;;6.00;6.00;;;;;10.54;52.14;101983.63;5060872;28;48443;-75
2023/04/17 00:40:14;;;;;;;;;6.00;6.00;;;;;10.62;52.22;101996.38;5062112;28;45498;-74
2023/04/17 00:42:39;;;;;;;;;7.33;4.67;;;;;10.77;52.02;102024.47;5080472;27;45439;-75
2023/04/17 00:45:09;;;;;;;;;5.67;5.67;;;;;9.99;52.08;101886.63;5080515;27;45465;-75
2023/04/17 00:47:34;;;;;;;;;7.67;5.00;;;;;10.65;51.86;101981.03;5079784;28;46016;-74
2023/04/17 00:50:01;;;;;;;;;10.00;7.67;;;;;10.00;52.33;101877.72;5079096;28;45935;-75
2023/04/17 00:52:31;;;;;;;;;5.33;4.67;;;;;10.12;52.15;101891.06;5080095;28;45216;-76
2023/04/17 00:54:58;;;;;;;;;10.00;7.00;;;;;10.80;52.19;102016.25;5080217;27;45534;-77
2023/04/17 00:57:24;;;;;;;;;3.67;3.67;;;;;10.77;52.09;102015.63;5079987;28;46546;-74
2023/04/17 00:59:50;;;;;;;;;8.67;7.67;;;;;9.80;52.44;101859.72;5080232;27;45494;-73
2023/04/17 01:02:16;;;;;;;;;7.00;5.00;;;;;10.40;52.23;101951.88;5080432;27;45368;-73
2023/04/17 01:04:42;;;;;;;;;2.00;2.00;;;;;10.57;52.96;101993.19;5080463;27;45509;-76
2023/04/17 01:07:08;;;;;;;;;6.00;6.00;;;;;10.57;53.04;101987.84;5079839;27;45942;-73
2023/04/17 01:09:34;;;;;;;;;5.67;5.67;;;;;10.22;52.91;101924.88;5079500;28;45325;-74
2023/04/17 01:12:35;;;;;;;;;5.00;5.00;;;;;10.55;53.05;101992.44;5079734;28;45234;-74
2023/04/17 01:15:01;;;;;;;;;7.33;6.00;;;;;10.58;53.42;102002.84;4961539;28;45572;-74
2023/04/17 01:17:26;;;;;;;;;8.00;6.33;;;;;10.38;53.02;101959.13;5041027;28;47542;-75
2023/04/17 01:19:52;;;;;;;;;4.00;4.00;;;;;9.61;52.87;101817.75;5079782;28;45271;-74
2023/04/17 01:22:21;;;;;;;;;6.67;5.00;;;;;10.23;52.40;101907.13;5080216;28;45578;-74
2023/04/17 01:24:47;;;;;;;;;6.00;6.00;;;;;10.78;52.33;101996.06;5079974;28;45303;-74
2023/04/17 01:27:12;;;;;;;;;6.67;5.67;;;;;10.66;52.48;101960.59;5079613;27;45619;-76
2023/04/17 01:29:38;;;;;;;;;6.33;6.00;;;;;10.82;52.25;101979.78;5061514;28;45588;-73
2023/04/17 01:32:04;;;;;;;;;5.67;5.00;;;;;10.54;52.16;101941.06;5079499;27;45430;-73
2023/04/17 01:34:29;;;;;;;;;5.67;5.67;;;;;10.73;52.64;101976.94;5079756;28;45482;-73
2023/04/17 01:36:55;;;;;;;;;5.33;5.33;;;;;10.84;52.61;101995.63;5079462;28;45854;-75
2023/04/17 01:39:20;;;;;;;;;7.00;7.00;;;;;10.81;52.70;101999.34;5060687;28;45623;-75
2023/04/17 01:41:45;;;;;;;;;9.67;6.00;;;;;10.64;53.00;101983.81;5079512;27;45535;-76
2023/04/17 01:44:11;;;;;;;;;7.00;7.00;;;;;10.59;53.22;101989.44;5061193;28;49933;-74
2023/04/17 01:46:36;;;;;;;;;6.00;5.67;;;;;10.50;53.77;101992.78;5079137;28;46860;-73
2023/04/17 01:49:01;;;;;;;;;7.00;6.00;;;;;10.33;54.45;101961.28;5078486;28;46121;-75
2023/04/17 01:51:27;;;;;;;;;8.00;8.00;;;;;10.51;54.41;102002.47;5079072;27;45247;-74
2023/04/17 01:53:53;;;;;;;;;7.67;5.67;;;;;10.42;54.58;102008.47;5061018;28;45253;-77
2023/04/17 01:56:18;;;;;;;;;9.33;7.67;;;;;10.36;55.21;102007.09;5078800;27;45318;-75
2023/04/17 01:58:43;;;;;;;;;8.67;8.00;;;;;10.23;55.39;102010.78;5078975;27;45379;-74
2023/04/17 02:01:09;;;;;;;;;7.67;7.67;;;;;10.26;55.37;101987.47;5060946;28;45328;-74
2023/04/17 02:03:34;;;;;;;;;13.00;10.00;;;;;10.15;55.06;101967.91;5079558;28;45254;-75
2023/04/17 02:06:00;;;;;;;;;11.00;8.00;;;;;9.97;55.40;101946.16;5078731;27;46322;-74
2023/04/17 02:08:26;;;;;;;;;9.33;9.00;;;;;9.99;55.36;101953.06;5078281;28;45423;-75
2023/04/17 02:10:51;;;;;;;;;10.67;10.33;;;;;9.81;55.19;101922.53;5078985;28;45354;-74
2023/04/17 02:13:16;;;;;;;;;9.33;8.33;;;;;10.17;55.47;101989.91;5079218;28;45521;-74
2023/04/17 02:15:42;;;;;;;;;8.33;7.00;;;;;10.18;55.82;102000.41;5078288;28;46448;-75
2023/04/17 02:18:08;;;;;;;;;11.33;7.67;;;;;10.10;55.84;101984.19;5078876;27;45400;-75
2023/04/17 02:20:34;;;;;;;;;7.67;7.67;;;;;10.15;55.49;101997.97;5078984;27;45366;-75
2023/04/17 02:23:01;;;;;;;;;11.00;9.67;;;;;10.20;55.56;102000.31;5079220;28;45308;-75
2023/04/17 02:25:27;;;;;;;;;8.33;8.33;;;;;9.25;55.70;101841.63;5060740;28;48114;-75
2023/04/17 02:27:53;;;;;;;;;8.00;7.00;;;;;10.17;55.79;101998.72;5060480;28;46259;-74
2023/04/17 02:30:19;;;;;;;;;7.00;7.00;;;;;9.89;55.72;101954.69;5078741;28;45270;-74
2023/04/17 02:32:44;;;;;;;;;8.33;5.00;;;;;10.07;56.23;101989.72;5079576;27;45435;-75
2023/04/17 02:35:10;;;;;;;;;9.33;9.33;;;;;10.00;55.99;101972.50;5079040;27;45590;-75
2023/04/17 02:37:36;;;;;;;;;8.33;8.33;;;;;9.30;56.74;101858.91;5078074;28;45396;-75
2023/04/17 02:40:04;;;;;;;;;8.67;8.67;;;;;8.95;57.14;101812.78;5060410;27;45312;-74
2023/04/17 02:42:29;;;;;;;;;8.00;8.00;;;;;9.57;57.66;101932.22;5060421;28;45578;-74
2023/04/17 02:44:55;;;;;;;;;12.33;10.67;;;;;9.89;58.11;101983.91;5077923;28;47429;-74
2023/04/17 02:47:20;;;;;;;;;11.33;10.00;;;;;9.69;58.26;101957.94;5078243;28;45481;-74
2023/04/17 02:49:45;;;;;;;;;10.00;10.00;;;;;9.85;58.55;101985.09;5078494;28;45418;-76
2023/04/17 02:52:11;;;;;;;;;8.00;3.00;;;;;9.26;58.30;101886.63;5078215;28;50400;-72
2023/04/17 02:54:36;;;;;;;;;10.67;9.67;;;;;9.87;58.76;101987.66;5077677;27;49917;-75
2023/04/17 02:57:02;;;;;;;;;12.33;12.33;;;;;9.09;58.91;101858.63;5077674;28;49154;-76
2023/04/17 02:59:28;;;;;;;;;10.67;9.67;;;;;9.62;58.39;101940.75;5077140;28;45501;-74
2023/04/17 03:01:53;;;;;;;;;14.33;13.00;;;;;9.31;58.53;101887.16;5060124;28;45355;-74
2023/04/17 03:04:20;;;;;;;;;12.00;10.00;;;;;9.75;58.45;101965.44;5059604;28;48481;-75
2023/04/17 03:06:46;;;;;;;;;14.00;12.67;;;;;9.70;58.57;101949.84;5059883;28;46473;-75
2023/04/17 03:09:13;;;;;;;;;8.67;7.00;;;;;9.97;58.26;101978.88;5077434;28;45397;-75
2023/04/17 03:11:39;;;;;;;;;14.67;11.00;;;;;9.66;57.96;101920.97;5077021;28;45493;-76
2023/04/17 03:14:04;;;;;;;;;10.00;10.00;;;;;10.04;57.78;101974.84;5077865;27;46110;-75
2023/04/17 03:16:29;;;;;;;;;10.00;10.00;;;;;10.04;57.55;101969.53;5077937;28;45511;-72
2023/04/17 03:18:55;;;;;;;;;14.67;13.00;;;;;10.19;57.16;101986.16;5076600;27;45294;-76
2023/04/17 03:21:20;;;;;;;;;12.00;10.33;;;;;9.61;57.31;101891.22;5078277;27;45153;-75
2023/04/17 03:23:45;;;;;;;;;14.00;14.00;;;;;10.08;57.75;101988.75;5077528;28;45546;-76
2023/04/17 03:26:11;;;;;;;;;12.33;10.33;;;;;9.72;57.85;101939.97;5059616;27;45451;-75
2023/04/17 03:28:36;;;;;;;;;12.00;12.00;;;;;9.26;58.20;101865.41;5077786;28;45246;-73
2023/04/17 03:31:01;;;;;;;;;9.00;7.67;;;;;9.66;58.17;101934.25;5077866;27;45549;-74
2023/04/17 03:33:27;;;;;;;;;16.67;15.00;;;;;9.59;58.49;101935.63;5059226;28;46540;-74
2023/04/17 03:35:52;;;;;;;;;13.00;11.33;;;;;9.55;58.22;101928.84;5077484;28;45581;-75
2023/04/17 03:38:18;;;;;;;;;11.00;11.00;;;;;8.91;58.57;101836.03;5058782;27;45376;-73
2023/04/17 03:40:44;;;;;;;;;9.33;9.33;;;;;9.33;58.90;101918.88;5077834;28;45425;-74
2023/04/17 03:43:09;;;;;;;;;14.33;10.67;;;;;9.49;59.21;101987.69;5059033;28;47395;-73
2023/04/17 03:45:34;;;;;;;;;15.00;12.33;;;;;8.93;59.15;101892.44;5076561;28;45500;-75
2023/04/17 03:48:00;;;;;;;;;13.33;13.33;;;;;9.34;58.83;101966.53;5077386;27;45552;-74
2023/04/17 03:50:26;;;;;;;;;6.67;5.33;;;;;9.49;58.96;101993.84;5078046;28;45316;-75
2023/04/17 03:52:51;;;;;;;;;16.33;13.33;;;;;8.48;59.28;101820.41;5076678;28;46387;-73
2023/04/17 03:55:16;;;;;;;;;19.67;15.00;;;;;8.47;59.72;101839.06;5077100;27;45256;-75
2023/04/17 03:57:42;;;;;;;;;18.00;13.67;;;;;8.86;60.04;101916.84;5077415;27;45367;-75
2023/04/17 04:00:11;;;;;;;;;15.33;13.33;;;;;8.40;60.38;101849.22;5077580;28;45495;-74
2023/04/17 04:02:36;;;;;;;;;17.33;15.00;;;;;8.83;60.13;101932.03;5077541;27;46556;-75
2023/04/17 04:05:02;;;;;;;;;15.67;15.67;;;;;8.99;60.40;101937.13;5077188;28;45518;-74
2023/04/17 04:07:27;;;;;;;;;13.67;11.67;;;;;8.63;60.41;101895.41;5075718;27;45397;-75
2023/04/17 04:09:53;;;;;;;;;16.00;16.00;;;;;8.92;60.55;101945.59;5075228;28;45240;-74
2023/04/17 04:12:18;;;;;;;;;19.00;16.00;;;;;8.56;61.17;101902.03;5078932;27;48643;-73
2023/04/17 04:14:43;;;;;;;;;16.33;15.33;;;;;8.80;60.92;101918.09;5062650;28;45301;-72
2023/04/17 04:17:09;;;;;;;;;15.33;15.33;;;;;9.21;60.73;101976.31;5082128;27;45393;-75
2023/04/17 04:19:34;;;;;;;;;14.00;13.33;;;;;8.97;60.51;101922.25;5082577;28;45384;-74
2023/04/17 04:22:00;;;;;;;;;15.33;14.00;;;;;8.59;60.33;101864.72;5080517;28;46187;-77
2023/04/17 04:24:25;;;;;;;;;15.00;15.00;;;;;9.33;61.03;102009.97;5080192;28;45456;-76
2023/04/17 04:26:51;;;;;;;;;18.00;14.67;;;;;9.43;60.99;102010.19;5080572;28;45815;-74
2023/04/17 04:29:16;;;;;;;;;10.33;8.33;;;;;9.30;61.08;101999.56;5058490;28;45538;-72
2023/04/17 04:31:45;;;;;;;;;17.33;16.00;;;;;8.89;61.15;101940.50;5060346;28;46479;-75
2023/04/17 04:34:12;;;;;;;;;16.00;16.00;;;;;9.31;60.74;101993.28;5080117;28;45292;-74
2023/04/17 04:36:49;;;;;;;;;20.00;19.00;;;;;9.01;60.80;101951.16;5080083;27;45226;-73
2023/04/17 04:39:19;;;;;;;;;14.00;14.00;;;;;9.07;61.32;101960.50;5079961;28;45504;-76
2023/04/17 04:41:51;;;;;;;;;20.00;18.00;;;;;9.38;61.15;102021.09;5080320;28;45834;-74
2023/04/17 04:44:17;;;;;;;;;19.33;17.33;;;;;9.45;60.99;102030.38;5080279;28;45474;-74
2023/04/17 04:46:43;;;;;;;;;18.00;13.67;;;;;9.48;61.05;102023.16;5080046;28;45332;-74
2023/04/17 04:49:09;;;;;;;;;21.00;18.00;;;;;9.39;60.99;101985.63;5080146;28;45335;-74
2023/04/17 04:51:34;;;;;;;;;21.67;19.00;;;;;9.32;60.97;101965.81;5061628;28;47882;-76
2023/04/17 04:54:00;;;;;;;;;18.67;18.00;;;;;9.25;60.77;101969.84;5079552;27;45269;-77
2023/04/17 04:56:26;;;;;;;;;17.67;13.00;;;;;9.67;61.10;102018.25;5078762;28;45503;-74
2023/04/17 04:58:51;;;;;;;;;19.67;19.67;;;;;9.34;60.70;101955.94;5080199;28;45404;-76
2023/04/17 05:01:17;;;;;;;;;20.00;16.33;;;;;9.29;60.77;101957.22;5061466;28;48238;-75
2023/04/17 05:03:46;;;;;;;;;19.00;17.67;;;;;9.60;60.69;102004.53;5078675;28;45944;-76
2023/04/17 05:06:12;;;;;;;;;23.33;21.00;;;;;9.78;60.34;102031.63;5078414;27;45505;-74
2023/04/17 05:08:40;;;;;;;;;23.00;18.33;;;;;9.58;61.06;102003.81;5078320;28;45608;-73
2023/04/17 05:11:06;;;;;;;;;20.00;17.00;;;;;9.31;61.40;101984.47;5061366;28;48462;-75
2023/04/17 05:13:32;;;;;;;;;25.33;23.67;;;;;9.36;61.67;101977.06;5078728;27;45426;-76
2023/04/17 05:15:57;;;;;;;;;28.33;23.33;;;;;9.21;62.14;101967.47;5079003;27;45254;-74
2023/04/17 05:18:23;;;;;;;;;28.33;25.67;;;;;9.37;62.55;102000.81;5079713;27;45467;-73
2023/04/17 05:20:50;;;;;;;;;24.00;20.67;;;;;8.54;62.85;101877.44;5079414;28;45579;-74
2023/04/17 05:23:15;;;;;;;;;27.33;22.00;;;;;9.46;62.53;102020.59;5059905;28;45331;-75
2023/04/17 05:25:40;;;;;;;;;29.33;23.33;;;;;9.53;62.89;102023.66;5079454;27;45793;-76
2023/04/17 05:28:06;;;;;;;;;27.00;22.00;;;;;9.56;62.79;102024.31;5059374;28;45334;-75
2023/04/17 05:30:32;;;;;;;;;20.00;18.33;;;;;9.15;62.44;101947.53;5071107;27;46730;-75
2023/04/17 05:32:59;;;;;;;;;21.33;21.00;;;;;9.59;62.52;102042.66;5078232;27;45509;-75
2023/04/17 05:35:26;;;;;;;;;25.00;23.33;;;;;9.53;62.92;102028.97;5078540;28;45535;-75
2023/04/17 05:37:52;;;;;;;;;25.00;20.33;;;;;9.57;63.12;102022.50;5076017;27;45585;-75
2023/04/17 05:40:17;;;;;;;;;28.00;26.00;;;;;9.61;63.12;102035.47;5070259;27;45649;-76
2023/04/17 05:42:43;;;;;;;;;27.33;26.00;;;;;9.53;63.62;102021.00;5078751;28;45488;-74
2023/04/17 05:45:12;;;;;;;;;27.67;25.00;;;;;9.33;63.07;101971.97;5081322;27;45950;-76
2023/04/17 05:47:37;;;;;;;;;25.33;24.33;;;;;9.79;62.75;102037.78;5079134;27;45540;-74
2023/04/17 05:50:03;;;;;;;;;26.33;23.67;;;;;8.82;62.87;101869.34;5078826;28;46347;-74
2023/04/17 05:52:28;;;;;;;;;25.00;24.00;;;;;9.37;63.63;101984.06;5072889;27;46025;-75
2023/04/17 05:54:54;;;;;;;;;25.67;24.33;;;;;8.59;64.16;101875.34;5040464;27;45711;-78
2023/04/17 05:57:19;;;;;;;;;29.00;27.67;;;;;8.72;64.22;101888.63;5078763;27;45540;-74
2023/04/17 05:59:45;;;;;;;;;27.33;24.33;;;;;9.21;63.84;101960.41;5077219;28;47310;-75
2023/04/17 06:02:10;;;;;;;;;28.33;27.67;;;;;9.52;63.89;102000.72;5079696;27;45202;-75
2023/04/17 06:04:35;;;;;;;;;32.33;31.67;;;;;9.64;64.01;102021.97;5078816;27;45529;-77
2023/04/17 06:07:01;;;;;;;;;27.00;25.00;;;;;9.42;64.03;101977.50;5060711;28;45537;-75
2023/04/17 06:09:27;;;;;;;;;33.33;28.33;;;;;9.68;64.46;102033.22;5076966;28;47791;-74
2023/04/17 06:11:52;;;;;;;;;27.67;25.67;;;;;9.61;64.77;102023.97;5076824;27;45592;-75
2023/04/17 06:14:18;;;;;;;;;26.00;23.67;;;;;9.04;64.78;101915.59;5064910;28;45691;-73
2023/04/17 06:16:43;;;;;;;;;38.33;30.67;;;;;9.66;64.83;102027.19;5078506;27;45482;-77
2023/04/17 06:19:08;;;;;;;;;33.00;28.00;;;;;8.80;64.78;101875.66;5066153;27;47571;-75
2023/04/17 06:21:34;;;;;;;;;32.33;29.67;;;;;9.73;65.03;102020.47;5075378;27;45352;-77
2023/04/17 06:23:59;;;;;;;;;33.33;30.33;;;;;9.34;64.70;101957.72;5075663;28;45647;-76
2023/04/17 06:26:25;;;;;;;;;26.67;24.67;;;;;9.92;63.97;102034.16;5078591;28;45301;-77
2023/04/17 06:28:50;;;;;;;;;30.33;28.67;;;;;9.87;64.44;102020.38;5078174;28;46444;-75
2023/04/17 06:31:15;;;;;;;;;34.00;32.00;;;;;9.93;64.36;102024.38;5078054;27;45281;-75
2023/04/17 06:33:41;;;;;;;;;38.00;32.00;;;;;9.89;64.77;102045.00;5060213;28;45276;-74
2023/04/17 06:36:06;;;;;;;;;32.00;27.00;;;;;9.57;65.56;102001.25;5078288;27;45426;-76
2023/04/17 06:38:32;;;;;;;;;42.00;32.67;;;;;9.68;65.36;102018.16;5059552;28;47318;-75
2023/04/17 06:41:00;;;;;;;;;37.33;35.00;;;;;9.89;65.78;102045.00;5059622;28;45414;-75
2023/04/17 06:43:26;;;;;;;;;36.33;32.00;;;;;9.31;65.44;101939.38;5078074;28;45417;-76
2023/04/17 06:45:52;;;;;;;;;39.00;33.33;;;;;9.63;65.68;101995.53;5078179;28;45297;-75
2023/04/17 06:48:17;;;;;;;;;45.67;34.00;;;;;10.06;65.10;102052.66;5059360;28;47971;-76
2023/04/17 06:50:42;;;;;;;;;33.33;29.67;;;;;10.17;64.78;102053.69;5078135;28;45473;-76
2023/04/17 06:53:08;;;;;;;;;38.67;34.67;;;;;10.21;64.76;102048.09;5077711;27;45219;-76
2023/04/17 06:55:33;;;;;;;;;36.00;32.67;;;;;9.94;65.48;102037.56;5078360;27;45434;-75
2023/04/17 06:57:58;;;;;;;;;36.00;32.00;;;;;10.11;65.74;102049.66;5081487;27;45685;-74
2023/04/17 07:00:24;;;;;;;;;38.33;32.00;;;;;10.02;65.74;102040.53;5077672;28;46011;-75
2023/04/17 07:02:50;;;;;;;;;29.00;26.67;;;;;9.88;66.02;102014.09;5072113;27;45496;-77
2023/04/17 07:05:15;;;;;;;;;38.67;33.00;;;;;9.89;65.53;102006.97;5072637;27;45234;-74
2023/04/17 07:07:40;;;;;;;;;43.33;35.33;;;;;9.94;65.39;102002.19;5075265;27;47516;-76
2023/04/17 07:10:06;;;;;;;;;35.00;31.00;;;;;10.21;65.78;102060.50;5059549;28;45511;-75
2023/04/17 07:12:32;;;;;;;;;38.00;34.33;;;;;9.64;66.03;101970.69;5076669;28;45408;-77
2023/04/17 07:14:58;;;;;;;;;34.00;27.33;;;;;9.60;65.82;101950.59;5071652;27;45506;-76
2023/04/17 07:17:23;;;;;;;;;45.33;33.67;;;;;10.17;65.79;102043.03;5077200;27;46185;-76
2023/04/17 07:19:49;;;;;;;;;47.67;37.67;;;;;10.32;65.50;102060.59;5076271;27;46467;-76
2023/04/17 07:22:14;;;;;;;;;43.33;36.33;;;;;10.39;65.56;102084.91;5090310;27;45389;-75
2023/04/17 07:24:39;;;;;;;;;50.33;38.00;;;;;10.45;65.48;102073.88;5059219;28;45506;-75
2023/04/17 07:27:08;;;;;;;;;44.33;36.00;;;;;10.40;65.15;102062.69;5066608;28;48820;-76
2023/04/17 07:29:34;;;;;;;;;48.67;37.00;;;;;10.36;65.71;102075.34;5085291;27;45542;-77
2023/04/17 07:32:01;;;;;;;;;44.67;37.00;;;;;9.43;66.06;101942.03;5076914;28;45405;-77
2023/04/17 07:34:29;;;;;;;;;43.00;36.67;;;;;10.27;66.10;102097.28;5075846;27;45515;-77
2023/04/17 07:36:55;;;;;;;;;38.33;32.67;;;;;9.35;66.07;101941.69;5075937;27;46087;-75
2023/04/17 07:39:21;;;;;;;;;43.00;37.00;;;;;9.86;66.34;102029.28;5076280;27;45397;-76
2023/04/17 07:41:47;;;;;;;;;50.00;38.00;;;;;10.25;66.33;102101.88;5075710;27;45513;-76
2023/04/17 07:44:13;;;;;;;;;48.33;39.33;;;;;10.02;66.77;102061.81;5083108;27;45541;-80
2023/04/17 07:46:38;;;;;;;;;43.00;37.33;;;;;10.14;66.97;102080.47;5065474;28;47455;-76
2023/04/17 07:49:04;;;;;;;;;45.00;35.67;;;;;10.15;67.28;102084.81;5071448;28;45436;-73
2023/04/17 07:51:30;;;;;;;;;45.33;36.00;;;;;9.65;66.16;101983.84;5075556;27;45415;-74
2023/04/17 07:53:56;;;;;;;;;36.00;31.33;;;;;10.24;66.25;102057.66;5071793;27;45414;-76
2023/04/17 07:56:21;;;;;;;;;34.00;31.00;;;;;10.32;66.21;102068.56;5074416;28;45504;-79
2023/04/17 07:58:50;;;;;;;;;56.00;40.33;;;;;10.47;66.51;102088.75;5055246;27;45561;-74
2023/04/17 08:01:16;;;;;;;;;53.00;40.33;;;;;9.74;66.19;101955.78;5070505;27;45585;-75
2023/04/17 08:03:43;;;;;;;;;49.00;37.67;;;;;9.82;66.10;101950.78;5070974;27;45501;-74
2023/04/17 08:06:09;;;;;;;;;36.00;31.33;;;;;10.18;65.30;102000.41;5073391;27;46683;-74
2023/04/17 08:08:35;;;;;;;;;47.00;38.67;;;;;10.63;65.46;102056.56;5072701;27;45479;-75
2023/04/17 08:11:00;;;;;;;;;43.00;37.00;;;;;9.84;65.26;101938.25;5065942;28;45584;-73
2023/04/17 08:13:26;;;;;;;;;45.00;36.67;;;;;10.07;64.88;101953.38;5068300;28;45628;-75
2023/04/17 08:15:53;;;;;;;;;44.33;35.00;;;;;10.83;64.61;102061.28;5074833;28;47982;-74
2023/04/17 08:18:18;;;;;;;;;46.33;36.33;;;;;10.89;65.31;102078.59;5066867;28;45575;-74
2023/04/17 08:20:44;;;;;;;;;45.00;38.00;;;;;10.61;65.31;102042.50;5076544;28;45535;-74
2023/04/17 08:23:09;;;;;;;;;51.33;37.67;;;;;10.85;65.66;102093.94;5072661;27;45330;-74
2023/04/17 08:25:35;;;;;;;;;54.67;42.00;;;;;10.77;65.58;102084.81;5054494;28;47222;-76
2023/04/17 08:28:00;;;;;;;;;49.33;38.67;;;;;10.73;65.94;102088.66;5065049;27;45486;-75
2023/04/17 08:30:25;;;;;;;;;46.67;40.00;;;;;9.96;65.92;101961.25;5075978;27;45397;-76
2023/04/17 08:32:51;;;;;;;;;40.00;35.33;;;;;10.41;65.82;102025.38;5059983;27;45828;-75
2023/04/17 08:35:17;;;;;;;;;49.67;40.33;;;;;9.89;65.69;101944.06;5068101;28;47225;-76
2023/04/17 08:37:45;;;;;;;;;45.33;36.33;;;;;10.88;65.55;102087.53;5083032;27;45523;-74
2023/04/17 08:40:12;;;;;;;;;45.67;37.67;;;;;10.93;65.26;102090.69;5072984;28;45786;-76
2023/04/17 08:42:40;;;;;;;;;51.33;40.00;;;;;10.88;65.81;102083.06;5075356;27;45379;-75
2023/04/17 08:45:10;;;;;;;;;49.00;40.67;;;;;10.65;65.13;102023.59;5087013;27;47265;-74
2023/04/17 08:47:41;;;;;;;;;52.00;41.33;;;;;11.11;65.18;102099.13;5047961;27;46824;-76
2023/04/17 08:50:08;;;;;;;;;46.00;35.67;;;;;11.07;64.82;102095.84;5064718;28;45310;-72
2023/04/17 08:52:44;;;;;;;;;50.67;41.67;;;;;11.16;64.83;102089.84;5075916;27;45430;-74
2023/04/17 08:55:12;;;;;;;;;53.33;42.67;;;;;11.20;64.70;102096.63;5064062;28;46444;-76
2023/04/17 08:58:03;;;;;;;;;55.33;44.00;;;;;11.25;64.62;102086.50;5069029;28;45630;-75
2023/04/17 09:00:30;;;;;;;;;54.00;42.67;;;;;11.40;64.61;102094.25;5083379;27;45404;-77
2023/04/17 09:02:57;;;;;;;;;47.67;37.67;;;;;10.65;63.57;101965.06;5079894;27;45431;-73
2023/04/17 09:05:25;;;;;;;;;48.67;38.33;;;;;11.51;63.33;102088.97;5078967;28;46405;-72
2023/04/17 09:08:22;;;;;;;;;55.50;42.75;;;;;11.68;63.12;102101.03;5062586;27;45502;-75
2023/04/17 09:10:52;;;;;;;;;59.33;44.33;;;;;11.75;62.39;102088.91;5085498;27;45498;-75
2023/04/17 09:13:23;;;;;;;;;52.00;41.33;;;;;10.86;62.67;101921.84;5082676;27;45493;-74
2023/04/17 09:16:09;;;;;;;;;49.33;41.00;;;;;11.92;62.61;102085.81;5079496;28;46632;-76
2023/04/17 09:18:36;;;;;;;;;48.67;38.33;;;;;12.13;61.90;102086.78;5063149;28;45549;-75
2023/04/17 09:21:04;;;;;;;;;55.00;44.67;;;;;12.23;60.98;102088.75;5078668;28;45500;-78
2023/04/17 09:23:44;;;;;;;;;47.67;40.33;;;;;11.40;61.33;101938.00;5059837;27;45455;-75
2023/04/17 09:26:14;;;;;;;;;54.33;42.67;;;;;12.30;61.07;102082.78;5059302;28;46358;-73
2023/04/17 09:28:42;;;;;;;;;46.67;40.00;;;;;11.99;60.45;102016.88;5079955;27;45508;-73
2023/04/17 09:31:17;;;;;;;;;43.00;36.33;;;;;11.74;60.44;101970.84;5081825;27;45449;-75
2023/04/17 09:33:54;;;;;;;;;49.00;35.67;;;;;12.29;60.75;102082.91;5079824;27;45489;-75
2023/04/17 09:36:20;;;;;;;;;48.67;41.00;;;;;11.83;61.15;102020.78;5078491;28;45283;-76
2023/04/17 09:38:46;;;;;;;;;49.33;40.67;;;;;12.21;60.67;102048.84;5078890;27;45550;-74
2023/04/17 09:41:24;;;;;;;;;56.00;43.33;;;;;12.27;60.29;102059.03;5061030;28;45524;-76
2023/04/17 09:43:52;;;;;;;;;50.00;39.00;;;;;12.37;60.04;102075.97;5071723;27;45480;-76
2023/04/17 09:46:30;;;;;;;;;48.67;37.67;;;;;12.36;60.86;102087.63;5060591;28;48541;-77
2023/04/17 09:49:06;;;;;;;;;47.33;38.67;;;;;12.14;60.64;102082.31;5067718;28;45529;-75
2023/04/17 09:51:33;;;;;;;;;53.33;42.33;;;;;12.14;61.15;102059.16;5080350;28;45476;-76
2023/04/17 09:54:04;;;;;;;;;50.00;39.00;;;;;12.24;60.93;102053.97;5079556;27;45396;-76
2023/04/17 09:56:32;;;;;;;;;52.67;41.67;;;;;12.30;60.50;102079.28;5087476;27;47542;-76
2023/04/17 09:59:01;;;;;;;;;51.33;42.00;;;;;12.30;61.01;102069.47;5073501;27;45384;-75
2023/04/17 10:01:34;;;;;;;;;51.67;42.33;;;;;11.88;61.45;102025.75;5079681;28;45431;-76
2023/04/17 10:04:00;;;;;;;;;50.00;40.67;;;;;11.80;61.36;102017.47;5079187;27;45436;-75
2023/04/17 10:06:27;;;;;;;;;53.33;41.33;;;;;12.12;61.58;102095.75;5072616;27;45819;-75
2023/04/17 10:08:53;;;;;;;;;52.67;42.67;;;;;12.08;62.28;102091.66;5077116;27;45366;-74
2023/04/17 10:11:21;;;;;;;;;55.00;44.00;;;;;12.18;61.83;102084.59;5079496;28;45262;-74
2023/04/17 10:13:54;;;;;;;;;50.00;41.33;;;;;11.84;61.93;102056.28;5065302;27;45393;-74
2023/04/17 10:16:32;;;;;;;;;53.33;43.00;;;;;11.83;61.98;102049.25;5061996;28;46779;-76
2023/04/17 10:19:26;;;;;;;;;50.33;39.33;;;;;12.21;61.58;102085.31;5048022;28;45562;-75
2023/04/17 10:22:19;;;;;;;;;48.00;37.33;;;;;12.02;62.12;102080.63;5049518;28;45607;-75
2023/04/17 10:24:53;;;;;;;;;57.33;45.00;;;;;11.97;62.58;102083.63;5083093;27;45354;-73
2023/04/17 10:27:41;;;;;;;;;46.00;37.67;;;;;12.03;62.58;102085.00;5096774;27;46196;-75
2023/04/17 10:30:11;;;;;;;;;52.67;42.33;;;;;11.96;62.35;102051.78;5069340;27;45423;-72
2023/04/17 10:32:38;;;;;;;;;54.67;45.00;;;;;12.39;62.20;102079.38;5077836;27;45356;-75
2023/04/17 10:35:15;;;;;;;;;46.00;37.33;;;;;12.54;61.08;102081.78;5078706;28;45412;-78
2023/04/17 10:37:50;;;;;;;;;51.33;41.33;;;;;12.04;60.52;101964.06;5059101;27;45879;-75
2023/04/17 10:40:26;;;;;;;;;49.00;40.00;;;;;12.63;60.71;102073.91;5075547;27;45405;-76
2023/04/17 10:43:13;;;;;;;;;55.67;45.33;;;;;12.73;60.89;102071.31;5076153;27;45404;-77
2023/04/17 10:45:56;;;;;;;;;53.00;42.67;;;;;12.67;60.67;102077.16;5041113;28;45340;-77
2023/04/17 10:48:28;;;;;;;;;57.00;46.25;;;;;11.50;60.83;101901.72;5070095;27;46696;-77
2023/04/17 10:50:55;;;;;;;;;59.00;44.33;;;;;11.73;61.16;101942.50;5084517;27;45371;-76
2023/04/17 10:53:40;;;;;;;;;48.67;39.00;;;;;11.90;60.68;101961.66;5081855;27;45262;-77
2023/04/17 10:56:06;;;;;;;;;50.67;41.00;;;;;12.41;60.77;102023.25;5081564;27;46360;-77
2023/04/17 10:58:36;;;;;;;;;40.33;35.00;;;;;11.85;60.22;101922.06;5082175;27;45754;-77
2023/04/17 11:01:08;;;;;;;;;52.33;41.33;;;;;11.76;60.33;101914.75;5075928;27;45444;-76
2023/04/17 11:03:38;;;;;;;;;35.00;26.00;;;;;12.51;60.67;102058.03;5068600;27;45451;-76
2023/04/17 11:06:04;;;;;;;;;52.33;42.67;;;;;10.12;61.20;101679.34;5076503;27;45431;-75
2023/04/17 11:08:30;;;;;;;;;50.67;42.33;;;;;12.23;60.99;102038.09;5072481;28;47640;-74
2023/04/17 11:10:55;;;;;;;;;56.00;42.67;;;;;12.26;61.23;102040.50;5066275;27;45352;-77
2023/04/17 11:13:21;;;;;;;;;47.67;36.00;;;;;12.22;60.83;102034.56;5063876;27;45413;-75
2023/04/17 11:15:46;;;;;;;;;46.67;38.33;;;;;12.61;60.67;102032.28;5055647;28;45480;-76
2023/04/17 11:18:12;;;;;;;;;52.33;40.33;;;;;12.85;60.10;102054.31;5044250;28;45554;-78